createdAt,value
2023-11-23T00:07:57.544Z,0.13
2023-11-23T00:23:40.636Z,0.3
2023-11-23T00:39:23.105Z,0.43
2023-11-23T00:55:05.759Z,0.64
2023-11-23T01:10:48.304Z,0.92
2023-11-23T01:26:31.029Z,1.17
2023-11-23T01:42:13.473Z,1.38
2023-11-23T01:57:56.356Z,1.53
2023-11-23T02:13:39.525Z,1.65
2023-11-23T02:29:22.890Z,1.83
2023-11-23T02:45:05.995Z,1.97
2023-11-23T03:00:49.057Z,2.18
2023-11-23T03:16:32.053Z,2.39
2023-11-23T03:32:14.625Z,2.66
2023-11-23T03:47:57.247Z,2.9
2023-11-23T04:03:39.740Z,3.09
2023-11-23T04:19:23.250Z,3.3
2023-11-23T04:35:05.936Z,3.59
2023-11-23T04:50:49.072Z,3.83
2023-11-23T05:06:31.607Z,4.01
2023-11-23T05:22:14.293Z,4.17
2023-11-23T05:37:56.778Z,4.36
2023-11-23T05:53:39.584Z,4.55
2023-11-23T06:09:22.718Z,4.78
2023-11-23T06:25:05.809Z,5.08
2023-11-23T06:40:48.920Z,5.3
2023-11-23T06:56:32.004Z,5.4
2023-11-23T07:12:14.411Z,5.35
2023-11-23T07:27:56.504Z,5.35
2023-11-23T07:43:39.538Z,5.47
2023-11-23T07:59:21.703Z,5.79
2023-11-23T08:15:04.554Z,5.81
2023-11-23T08:30:47.910Z,6.01
2023-11-23T08:46:30.437Z,6.22
2023-11-23T09:02:13.693Z,6.47
2023-11-23T09:17:56.733Z,6.65
2023-11-23T09:33:40.006Z,6.79
2023-11-23T09:49:22.449Z,6.84
2023-11-23T10:05:04.890Z,6.94
2023-11-23T10:20:48.226Z,7.05
2023-11-23T10:36:31.036Z,7.08
2023-11-23T10:52:13.537Z,7.17
2023-11-23T11:07:56.268Z,7.26
2023-11-23T11:23:39.500Z,7.38
2023-11-23T11:39:22.049Z,7.43
2023-11-23T11:55:05.489Z,7.51
2023-11-23T12:10:48.188Z,7.63
2023-11-23T12:26:30.470Z,7.68
2023-11-23T12:42:13.471Z,7.71
2023-11-23T12:57:56.154Z,7.69
2023-11-23T13:13:39.019Z,7.69
2023-11-23T13:29:22.123Z,7.87
2023-11-23T13:45:04.404Z,8.14
2023-11-23T13:45:51.698Z,8.33
2023-11-23T14:01:34.899Z,9.12
2023-11-23T14:17:18.256Z,9.6
2023-11-23T14:33:00.409Z,9.78
2023-11-23T14:48:42.847Z,9.93
2023-11-23T15:04:25.561Z,9.93
2023-11-23T15:20:07.926Z,10
2023-11-23T15:35:51.033Z,10.06
2023-11-23T15:51:33.798Z,10.17
2023-11-23T16:07:16.056Z,10.24
2023-11-23T16:22:58.454Z,10.33
2023-11-23T16:38:41.500Z,10.43
2023-11-23T16:54:24.019Z,10.57
2023-11-23T17:10:07.114Z,10.68
2023-11-23T17:25:49.454Z,10.67
2023-11-23T17:41:50.180Z,10.56
2023-11-23T17:57:14.297Z,10.82
2023-11-23T18:12:57.160Z,10.72
2023-11-23T18:28:40.241Z,10.54
2023-11-23T18:44:22.932Z,10.49
2023-11-23T19:15:48.832Z,10.2
2023-11-23T20:02:56.282Z,8.6
2023-11-23T20:18:38.876Z,8.24
2023-11-23T20:50:04.373Z,7.76
2023-11-23T21:05:47.154Z,7.61
2023-11-23T21:21:29.431Z,7.46
2023-11-23T21:37:11.964Z,7.46
2023-11-23T21:52:55.330Z,7.49
2023-11-23T22:08:37.923Z,7.48
2023-11-23T22:24:20.795Z,7.5
2023-11-23T22:40:03.120Z,7.48
2023-11-23T22:55:45.909Z,7.36
2023-11-23T23:11:28.237Z,7.3
2023-11-23T23:27:10.868Z,7.19
2023-11-23T23:42:53.250Z,7.13
2023-11-23T23:58:35.880Z,7.11
